Weather at Charlottenberg Airstrip

Public forecast

Using degrees Celsius for public forecast. Weather courtesy of forecast.io.

Closest aviation weather report (METAR) to Charlottenberg Airstrip

Closest report is Torsby Airport, 26.7 nm (49.5 km) NE.

2024/05/24 00:20 (retrieved 27 minutes ago)

ESST 240020Z AUTO 31003KT 9999 NCD 13/11 Q1019

Closest aviation forecast (TAF) to Charlottenberg Airstrip

Forecast is more than 12 hours old.

Closest forecast is Luleå Airport, 433.2 nm (802.3 km) NE.

2024/05/22 09:36 (retrieved 2 days ago)

TAF TAF ESPA 220830Z 2209/2221 18006KT CAVOK RMK MIL